Time;durP1;ratioP1;P1;durP2;ratioP2;P2;SDS_P1;SDS_P2;PMS_P1;PMS_P2;Temp;Humidity;BMP_temperature;BMP_pressure;BME280_temperature;BME280_humidity;BME280_pressure;Samples;Min_cycle;Max_cycle;Signal;HPM_P1;HPM_P2
2023/03/05 00:01:59;;;;;;;14.38;7.10;;;;;;;;;;7385422;19;20082;-73
2023/03/05 00:04:24;;;;;;;12.55;6.68;;;;;;;;;;7385662;19;20036;-73
2023/03/05 00:06:50;;;;;;;13.05;6.70;;;;;;;;;;7385680;19;20524;-75
2023/03/05 00:09:15;;;;;;;14.13;6.95;;;;;;;;;;7385981;19;19994;-74
2023/03/05 00:11:41;;;;;;;14.23;6.90;;;;;;;;;;7387569;19;19998;-71
2023/03/05 00:14:06;;;;;;;15.40;6.53;;;;;;;;;;7384889;19;20002;-71
2023/03/05 00:16:32;;;;;;;15.77;6.68;;;;;;;;;;7385590;19;20002;-71
2023/03/05 00:18:59;;;;;;;16.85;7.38;;;;;;;;;;7386218;19;19999;-73
2023/03/05 00:21:29;;;;;;;12.32;6.78;;;;;;;;;;7387148;19;20006;-72
2023/03/05 00:23:55;;;;;;;15.80;7.30;;;;;;;;;;7384846;19;20094;-72
2023/03/05 00:26:24;;;;;;;15.38;6.78;;;;;;;;;;7387693;19;20009;-74
2023/03/05 00:28:51;;;;;;;16.02;7.32;;;;;;;;;;7386059;19;20046;-72
2023/03/05 00:31:21;;;;;;;14.65;7.32;;;;;;;;;;7384698;19;20472;-72
2023/03/05 00:33:51;;;;;;;12.20;7.22;;;;;;;;;;7385704;19;20524;-73
2023/03/05 00:36:16;;;;;;;18.17;7.32;;;;;;;;;;7387260;19;20165;-73
2023/03/05 00:38:42;;;;;;;16.83;6.63;;;;;;;;;;7390944;19;20054;-73
2023/03/05 00:41:07;;;;;;;14.10;6.45;;;;;;;;;;7386822;19;19999;-72
2023/03/05 00:43:32;;;;;;;11.98;6.15;;;;;;;;;;7384621;19;20071;-73
2023/03/05 00:45:58;;;;;;;12.95;6.70;;;;;;;;;;7385341;19;20002;-72
2023/03/05 00:48:24;;;;;;;16.02;6.47;;;;;;;;;;7385150;19;19991;-72
2023/03/05 00:50:50;;;;;;;17.50;6.68;;;;;;;;;;7385760;19;20055;-72
2023/03/05 00:53:15;;;;;;;13.18;5.72;;;;;;;;;;7384243;19;20083;-73
2023/03/05 00:55:40;;;;;;;12.32;6.18;;;;;;;;;;7386088;19;19999;-73
2023/03/05 00:58:06;;;;;;;13.45;5.53;;;;;;;;;;7384297;19;19994;-73
2023/03/05 01:00:31;;;;;;;12.38;5.65;;;;;;;;;;7383716;19;20009;-72
2023/03/05 01:02:56;;;;;;;13.70;5.95;;;;;;;;;;7384266;19;20005;-72
2023/03/05 01:05:21;;;;;;;14.57;6.00;;;;;;;;;;7384783;19;19994;-73
2023/03/05 01:07:47;;;;;;;13.07;5.63;;;;;;;;;;7385369;19;19990;-72
2023/03/05 01:10:12;;;;;;;12.13;5.43;;;;;;;;;;7381417;19;20019;-74
2023/03/05 01:12:38;;;;;;;16.90;5.93;;;;;;;;;;7383559;19;20100;-74
2023/03/05 01:15:04;;;;;;;21.15;6.40;;;;;;;;;;7389051;19;19999;-74
2023/03/05 01:17:30;;;;;;;20.73;6.75;;;;;;;;;;7385893;19;20027;-75
2023/03/05 01:19:55;;;;;;;12.45;5.60;;;;;;;;;;7384316;19;19994;-74
2023/03/05 01:22:20;;;;;;;15.15;5.80;;;;;;;;;;7385775;19;20452;-76
2023/03/05 01:24:45;;;;;;;14.13;5.88;;;;;;;;;;7382988;19;20002;-76
2023/03/05 01:27:11;;;;;;;14.40;6.10;;;;;;;;;;7384696;19;20010;-77
2023/03/05 01:29:36;;;;;;;15.15;6.25;;;;;;;;;;7384814;19;20038;-74
2023/03/05 01:32:02;;;;;;;17.60;6.63;;;;;;;;;;7385572;19;20117;-73
2023/03/05 01:34:27;;;;;;;12.63;6.38;;;;;;;;;;7383274;19;19995;-74
2023/03/05 01:36:53;;;;;;;13.52;6.07;;;;;;;;;;7384812;19;20027;-74
2023/03/05 01:39:18;;;;;;;13.13;6.35;;;;;;;;;;7383824;19;20003;-74
2023/03/05 01:41:43;;;;;;;14.00;6.00;;;;;;;;;;7384499;19;20003;-74
2023/03/05 01:44:24;;;;;;;17.25;6.70;;;;;;;;;;7381413;19;20002;-74
2023/03/05 01:46:49;;;;;;;14.80;6.25;;;;;;;;;;7382937;19;20393;-74
2023/03/05 01:49:31;;;;;;;20.88;7.57;;;;;;;;;;7383307;19;19999;-74
2023/03/05 01:52:00;;;;;;;14.00;6.68;;;;;;;;;;7384820;19;20555;-74
2023/03/05 01:54:42;;;;;;;18.17;6.68;;;;;;;;;;7385516;19;20362;-75
2023/03/05 01:57:11;;;;;;;14.73;5.97;;;;;;;;;;7384925;19;20021;-75
2023/03/05 01:59:39;;;;;;;14.90;6.50;;;;;;;;;;7387547;19;19998;-75
2023/03/05 02:02:06;;;;;;;11.52;5.38;;;;;;;;;;7388811;19;20027;-74
2023/03/05 02:04:40;;;;;;;12.23;6.25;;;;;;;;;;7387512;19;20471;-76
2023/03/05 02:07:06;;;;;;;14.32;6.38;;;;;;;;;;7390698;19;20103;-73
2023/03/05 02:09:31;;;;;;;15.27;6.03;;;;;;;;;;7389024;19;19999;-74
2023/03/05 02:11:57;;;;;;;17.75;7.28;;;;;;;;;;7390755;19;20003;-73
2023/03/05 02:14:23;;;;;;;16.60;6.90;;;;;;;;;;7388822;19;20835;-73
2023/03/05 02:16:49;;;;;;;21.27;6.80;;;;;;;;;;7389094;19;19998;-74
2023/03/05 02:19:14;;;;;;;13.50;6.55;;;;;;;;;;7390116;19;19998;-74
2023/03/05 02:21:42;;;;;;;14.73;6.03;;;;;;;;;;7392363;19;20410;-74
2023/03/05 02:24:13;;;;;;;14.07;7.00;;;;;;;;;;7388184;19;20022;-74
2023/03/05 02:26:39;;;;;;;14.43;6.90;;;;;;;;;;7390016;19;20006;-74
2023/03/05 02:29:07;;;;;;;17.05;6.55;;;;;;;;;;7388529;19;20321;-74
2023/03/05 02:31:32;;;;;;;20.40;6.72;;;;;;;;;;7390733;19;20021;-74
2023/03/05 02:33:58;;;;;;;17.08;6.63;;;;;;;;;;7388777;19;20344;-74
2023/03/05 02:36:24;;;;;;;15.90;7.07;;;;;;;;;;7389915;19;20080;-74
2023/03/05 02:38:49;;;;;;;16.58;6.82;;;;;;;;;;7389829;19;20023;-74
2023/03/05 02:41:15;;;;;;;16.25;6.88;;;;;;;;;;7389641;19;20200;-73
2023/03/05 02:43:41;;;;;;;16.45;6.25;;;;;;;;;;7388598;19;20010;-74
2023/03/05 02:46:06;;;;;;;14.05;6.75;;;;;;;;;;7387852;19;20003;-74
2023/03/05 02:48:32;;;;;;;17.58;6.88;;;;;;;;;;7389197;19;20328;-74
2023/03/05 02:50:57;;;;;;;13.40;6.35;;;;;;;;;;7387152;19;20341;-75
2023/03/05 02:53:23;;;;;;;14.32;7.10;;;;;;;;;;7387548;19;20030;-73
2023/03/05 02:55:48;;;;;;;14.48;6.50;;;;;;;;;;7388046;19;19999;-75
2023/03/05 02:58:15;;;;;;;13.02;6.25;;;;;;;;;;7389296;19;20400;-73
2023/03/05 03:00:41;;;;;;;17.90;7.10;;;;;;;;;;7388043;19;20018;-75
2023/03/05 03:03:06;;;;;;;14.45;6.68;;;;;;;;;;7387632;19;20074;-75
2023/03/05 03:05:31;;;;;;;20.88;7.00;;;;;;;;;;7389405;19;20490;-74
2023/03/05 03:07:57;;;;;;;13.02;6.70;;;;;;;;;;7393516;19;20018;-74
2023/03/05 03:10:22;;;;;;;17.80;6.95;;;;;;;;;;7386619;19;19991;-75
2023/03/05 03:12:48;;;;;;;16.10;6.45;;;;;;;;;;7387089;19;20014;-75
2023/03/05 03:15:15;;;;;;;12.32;6.15;;;;;;;;;;7388410;19;20002;-74
2023/03/05 03:17:41;;;;;;;24.40;8.15;;;;;;;;;;7388322;19;20034;-74
2023/03/05 03:20:10;;;;;;;15.40;6.25;;;;;;;;;;7386822;19;19998;-74
2023/03/05 03:22:35;;;;;;;13.68;6.40;;;;;;;;;;7387050;19;20006;-74
2023/03/05 03:25:01;;;;;;;13.80;6.63;;;;;;;;;;7388470;19;20016;-74
2023/03/05 03:27:26;;;;;;;15.98;6.20;;;;;;;;;;7386422;19;20006;-74
2023/03/05 03:29:52;;;;;;;13.07;6.65;;;;;;;;;;7385404;19;20014;-75
2023/03/05 03:32:17;;;;;;;14.85;6.53;;;;;;;;;;7387642;19;20485;-74
2023/03/05 03:34:43;;;;;;;17.60;7.35;;;;;;;;;;7385740;19;20332;-74
2023/03/05 03:37:09;;;;;;;15.40;7.10;;;;;;;;;;7388037;19;19995;-75
2023/03/05 03:39:35;;;;;;;17.30;7.57;;;;;;;;;;7386522;19;20002;-75
2023/03/05 03:42:00;;;;;;;18.45;7.75;;;;;;;;;;7386023;19;20099;-75
2023/03/05 03:44:25;;;;;;;18.27;8.00;;;;;;;;;;7386513;19;19999;-74
2023/03/05 03:46:51;;;;;;;19.15;7.47;;;;;;;;;;7388411;19;20345;-74
2023/03/05 03:49:26;;;;;;;17.10;7.72;;;;;;;;;;7387042;19;20003;-75
2023/03/05 03:51:56;;;;;;;14.68;7.60;;;;;;;;;;7390082;19;20090;-75
2023/03/05 03:54:22;;;;;;;19.80;7.70;;;;;;;;;;7386193;19;19998;-75
2023/03/05 03:56:48;;;;;;;19.88;7.55;;;;;;;;;;7385616;19;20016;-75
2023/03/05 03:59:13;;;;;;;17.85;8.20;;;;;;;;;;7387127;19;20070;-75
2023/03/05 04:01:39;;;;;;;18.15;7.93;;;;;;;;;;7387446;19;19995;-75
2023/03/05 04:04:04;;;;;;;21.33;8.55;;;;;;;;;;7385160;19;19995;-75
2023/03/05 04:06:30;;;;;;;21.65;8.25;;;;;;;;;;7387044;19;19990;-75
2023/03/05 04:08:56;;;;;;;18.02;7.97;;;;;;;;;;7386436;19;20034;-74
2023/03/05 04:11:21;;;;;;;17.77;8.18;;;;;;;;;;7386983;19;20001;-74
2023/03/05 04:13:47;;;;;;;19.85;8.73;;;;;;;;;;7385228;19;19999;-74
2023/03/05 04:16:14;;;;;;;16.92;7.45;;;;;;;;;;7384933;19;20010;-74
2023/03/05 04:18:39;;;;;;;22.08;9.32;;;;;;;;;;7384577;19;20442;-75
2023/03/05 04:21:05;;;;;;;25.35;9.25;;;;;;;;;;7383631;19;19995;-74
2023/03/05 04:23:31;;;;;;;17.05;7.82;;;;;;;;;;7389000;19;20471;-74
2023/03/05 04:25:57;;;;;;;20.95;8.30;;;;;;;;;;7386955;19;20002;-74
2023/03/05 04:28:22;;;;;;;23.10;8.77;;;;;;;;;;7384444;19;19998;-75
2023/03/05 04:30:48;;;;;;;20.92;9.15;;;;;;;;;;7383472;19;20003;-75
2023/03/05 04:33:14;;;;;;;28.88;10.18;;;;;;;;;;7384722;19;20012;-74
2023/03/05 04:35:39;;;;;;;18.48;9.25;;;;;;;;;;7386708;19;20464;-75
2023/03/05 04:38:04;;;;;;;19.30;8.02;;;;;;;;;;7386375;19;20006;-75
2023/03/05 04:40:30;;;;;;;19.67;9.05;;;;;;;;;;7386387;19;20009;-74
2023/03/05 04:42:55;;;;;;;18.80;8.93;;;;;;;;;;7385594;19;20003;-74
2023/03/05 04:45:20;;;;;;;25.58;9.45;;;;;;;;;;7385839;19;20551;-74
2023/03/05 04:47:46;;;;;;;21.42;9.75;;;;;;;;;;7387782;19;20476;-75
2023/03/05 04:50:11;;;;;;;19.55;8.80;;;;;;;;;;7384719;19;20019;-75
2023/03/05 04:52:40;;;;;;;19.17;8.75;;;;;;;;;;7385346;19;20002;-74
2023/03/05 04:55:06;;;;;;;23.67;8.13;;;;;;;;;;7384476;19;20003;-75
2023/03/05 04:57:31;;;;;;;19.60;9.05;;;;;;;;;;7386280;19;20010;-74
2023/03/05 04:59:56;;;;;;;23.80;9.80;;;;;;;;;;7384971;19;20019;-75
2023/03/05 05:02:22;;;;;;;20.80;9.02;;;;;;;;;;7385500;19;20066;-75
2023/03/05 05:04:47;;;;;;;21.45;9.70;;;;;;;;;;7384525;19;20005;-74
2023/03/05 05:07:12;;;;;;;21.50;9.10;;;;;;;;;;7385692;19;19995;-75
2023/03/05 05:09:40;;;;;;;23.02;9.07;;;;;;;;;;7389060;19;20006;-74
2023/03/05 05:12:05;;;;;;;22.27;9.07;;;;;;;;;;7384198;19;20452;-74
2023/03/05 05:14:33;;;;;;;21.42;9.35;;;;;;;;;;7383611;19;20029;-74
2023/03/05 05:16:59;;;;;;;18.85;6.78;;;;;;;;;;7386000;19;19995;-74
2023/03/05 05:19:24;;;;;;;18.25;7.68;;;;;;;;;;7384983;19;20464;-74
2023/03/05 05:21:50;;;;;;;21.20;7.72;;;;;;;;;;7385632;19;19997;-74
2023/03/05 05:24:15;;;;;;;15.77;6.63;;;;;;;;;;7383675;19;19998;-75
2023/03/05 05:26:40;;;;;;;16.83;6.45;;;;;;;;;;7384203;19;20003;-75
2023/03/05 05:29:06;;;;;;;12.75;6.28;;;;;;;;;;7384175;19;20002;-75
2023/03/05 05:31:31;;;;;;;15.30;5.95;;;;;;;;;;7385402;19;20476;-74
2023/03/05 05:33:56;;;;;;;13.80;5.00;;;;;;;;;;7386798;19;20082;-75
2023/03/05 05:36:21;;;;;;;15.05;5.22;;;;;;;;;;7392547;19;20389;-75
2023/03/05 05:38:47;;;;;;;11.45;4.50;;;;;;;;;;7392027;19;20468;-75
2023/03/05 05:41:15;;;;;;;9.43;4.28;;;;;;;;;;7392237;19;20008;-74
2023/03/05 05:43:40;;;;;;;14.50;4.45;;;;;;;;;;7390253;19;20355;-75
2023/03/05 05:46:09;;;;;;;10.15;3.85;;;;;;;;;;7391928;19;20001;-74
2023/03/05 05:48:36;;;;;;;10.57;3.47;;;;;;;;;;7392137;19;19991;-74
2023/03/05 05:51:10;;;;;;;8.80;3.70;;;;;;;;;;7388961;19;19998;-74
2023/03/05 05:53:36;;;;;;;8.95;3.92;;;;;;;;;;7389994;19;19999;-74
2023/03/05 05:56:06;;;;;;;10.30;3.53;;;;;;;;;;7391386;19;20019;-74
2023/03/05 05:58:31;;;;;;;9.20;3.25;;;;;;;;;;7391033;19;20027;-73
2023/03/05 06:00:56;;;;;;;12.98;3.30;;;;;;;;;;7388934;19;19995;-75
2023/03/05 06:03:22;;;;;;;11.93;3.30;;;;;;;;;;7393812;19;19998;-74
2023/03/05 06:05:47;;;;;;;11.52;4.28;;;;;;;;;;7392109;19;19994;-75
2023/03/05 06:08:13;;;;;;;14.80;5.13;;;;;;;;;;7395033;19;20019;-73
2023/03/05 06:10:38;;;;;;;12.48;5.55;;;;;;;;;;7390564;19;19987;-74
2023/03/05 06:13:03;;;;;;;16.42;6.05;;;;;;;;;;7393028;19;20002;-74
2023/03/05 06:15:29;;;;;;;11.05;5.43;;;;;;;;;;7394335;19;19995;-74
2023/03/05 06:17:54;;;;;;;12.65;5.82;;;;;;;;;;7394807;19;20727;-74
2023/03/05 06:20:20;;;;;;;17.13;6.47;;;;;;;;;;7392069;19;20017;-73
2023/03/05 06:22:45;;;;;;;12.20;4.72;;;;;;;;;;7393305;19;20002;-74
2023/03/05 06:25:11;;;;;;;12.68;5.65;;;;;;;;;;7392512;19;20172;-75
2023/03/05 06:27:37;;;;;;;13.35;5.70;;;;;;;;;;7393373;19;19997;-75
2023/03/05 06:30:04;;;;;;;16.05;6.55;;;;;;;;;;7392157;19;19998;-73
2023/03/05 06:32:30;;;;;;;14.20;5.82;;;;;;;;;;7393541;19;20002;-76
2023/03/05 06:34:55;;;;;;;21.48;6.15;;;;;;;;;;7392901;19;20005;-75
2023/03/05 06:37:20;;;;;;;13.98;6.15;;;;;;;;;;7393585;19;20363;-74
2023/03/05 06:39:46;;;;;;;15.80;6.65;;;;;;;;;;7390111;19;20512;-73
2023/03/05 06:42:11;;;;;;;15.23;5.20;;;;;;;;;;7392224;19;19987;-74
2023/03/05 06:44:39;;;;;;;14.23;6.45;;;;;;;;;;7390317;19;20019;-74
2023/03/05 06:47:05;;;;;;;13.90;6.05;;;;;;;;;;7393605;19;20009;-76
2023/03/05 06:49:31;;;;;;;15.32;6.35;;;;;;;;;;7393073;19;20002;-75
2023/03/05 06:51:56;;;;;;;9.85;5.43;;;;;;;;;;7389766;19;20303;-75
2023/03/05 06:54:21;;;;;;;14.10;5.68;;;;;;;;;;7387795;19;20002;-74
2023/03/05 06:56:47;;;;;;;17.48;6.88;;;;;;;;;;7389702;19;19999;-73
2023/03/05 06:59:14;;;;;;;17.60;6.40;;;;;;;;;;7388639;19;19998;-73
2023/03/05 07:01:39;;;;;;;13.93;6.50;;;;;;;;;;7389750;19;20276;-75
2023/03/05 07:04:05;;;;;;;15.60;6.28;;;;;;;;;;7385737;19;20003;-75
2023/03/05 07:06:33;;;;;;;13.80;5.85;;;;;;;;;;7390744;19;20007;-74
2023/03/05 07:09:01;;;;;;;12.60;6.70;;;;;;;;;;7389996;19;20234;-75
2023/03/05 07:11:27;;;;;;;14.45;5.93;;;;;;;;;;7388851;19;20018;-72
2023/03/05 07:13:52;;;;;;;20.83;5.75;;;;;;;;;;7386656;19;20022;-72
2023/03/05 07:16:23;;;;;;;12.00;5.97;;;;;;;;;;7393109;19;20023;-73
2023/03/05 07:19:09;;;;;;;18.13;6.38;;;;;;;;;;7357068;19;20006;-71
2023/03/05 07:21:35;;;;;;;17.48;5.45;;;;;;;;;;7384053;19;20340;-74
2023/03/05 07:24:02;;;;;;;13.75;5.60;;;;;;;;;;7382191;19;20074;-72
2023/03/05 07:26:29;;;;;;;12.68;5.32;;;;;;;;;;7383633;19;20300;-74
2023/03/05 07:28:55;;;;;;;11.00;4.95;;;;;;;;;;7386724;19;20003;-73
2023/03/05 07:31:25;;;;;;;15.13;4.80;;;;;;;;;;7383377;19;20310;-73
2023/03/05 07:33:51;;;;;;;15.43;5.55;;;;;;;;;;7383623;19;20013;-74
2023/03/05 07:36:17;;;;;;;14.88;5.13;;;;;;;;;;7388738;19;20019;-74
2023/03/05 07:38:43;;;;;;;12.23;4.72;;;;;;;;;;7390390;19;20475;-72
2023/03/05 07:41:11;;;;;;;11.95;4.80;;;;;;;;;;7384336;19;20362;-75
2023/03/05 07:43:36;;;;;;;13.82;5.10;;;;;;;;;;7385925;19;20014;-69
2023/03/05 07:46:10;;;;;;;10.45;4.97;;;;;;;;;;7390192;19;20002;-73
2023/03/05 07:48:35;;;;;;;10.70;5.10;;;;;;;;;;7387357;19;20460;-71
2023/03/05 07:51:06;;;;;;;9.80;4.80;;;;;;;;;;7385317;19;20070;-71
2023/03/05 07:53:34;;;;;;;13.93;5.07;;;;;;;;;;7384001;19;20038;-71
2023/03/05 07:56:00;;;;;;;10.85;4.30;;;;;;;;;;7384411;19;20509;-72
2023/03/05 07:58:25;;;;;;;14.90;4.88;;;;;;;;;;7388798;19;20379;-74
2023/03/05 08:00:50;;;;;;;12.50;4.18;;;;;;;;;;7387110;19;20003;-76
2023/03/05 08:03:16;;;;;;;14.52;5.10;;;;;;;;;;7388708;19;20019;-74
2023/03/05 08:05:41;;;;;;;10.80;4.70;;;;;;;;;;7386449;19;20002;-73
2023/03/05 08:08:08;;;;;;;11.02;4.40;;;;;;;;;;7386819;19;20003;-72
2023/03/05 08:10:35;;;;;;;9.63;4.65;;;;;;;;;;7389711;19;20001;-72
2023/03/05 08:13:00;;;;;;;14.63;5.03;;;;;;;;;;7386323;19;20100;-72
2023/03/05 08:15:26;;;;;;;11.48;3.97;;;;;;;;;;7384271;19;20030;-73
2023/03/05 08:17:51;;;;;;;12.50;4.57;;;;;;;;;;7390355;19;20015;-74
2023/03/05 08:20:18;;;;;;;10.77;4.18;;;;;;;;;;7385101;19;19999;-72
2023/03/05 08:22:44;;;;;;;8.25;3.65;;;;;;;;;;7390834;19;20436;-74
2023/03/05 08:25:09;;;;;;;10.30;4.13;;;;;;;;;;7389258;19;19998;-74
2023/03/05 08:27:39;;;;;;;10.27;4.50;;;;;;;;;;7392810;19;20002;-73
2023/03/05 08:30:05;;;;;;;9.75;3.90;;;;;;;;;;7375289;19;20059;-71
2023/03/05 08:32:31;;;;;;;9.70;3.65;;;;;;;;;;7380775;19;20378;-71
2023/03/05 08:34:57;;;;;;;10.35;3.60;;;;;;;;;;7385218;19;20011;-73
2023/03/05 08:37:23;;;;;;;8.18;3.80;;;;;;;;;;7383725;19;20003;-71
2023/03/05 08:39:48;;;;;;;9.55;3.38;;;;;;;;;;7383563;19;20384;-70
2023/03/05 08:42:14;;;;;;;12.68;3.70;;;;;;;;;;7380636;19;19998;-74
2023/03/05 08:44:39;;;;;;;7.68;3.30;;;;;;;;;;7378670;19;20015;-73
2023/03/05 08:47:04;;;;;;;10.57;3.55;;;;;;;;;;7382291;19;20027;-73
2023/03/05 08:49:30;;;;;;;9.35;3.10;;;;;;;;;;7382538;19;20397;-72
2023/03/05 08:51:55;;;;;;;8.93;3.78;;;;;;;;;;7382420;19;20023;-73
2023/03/05 08:54:20;;;;;;;11.32;3.85;;;;;;;;;;7383582;19;20006;-73
2023/03/05 08:56:46;;;;;;;12.32;4.07;;;;;;;;;;7383882;19;20010;-73
2023/03/05 08:59:11;;;;;;;14.98;4.00;;;;;;;;;;7385077;19;20382;-72
2023/03/05 09:01:36;;;;;;;10.20;3.63;;;;;;;;;;7383368;19;20341;-71
2023/03/05 09:04:02;;;;;;;7.97;3.05;;;;;;;;;;7384428;19;20003;-72
2023/03/05 09:06:28;;;;;;;9.65;4.07;;;;;;;;;;7382465;19;20002;-70
2023/03/05 09:08:54;;;;;;;8.40;3.42;;;;;;;;;;7391716;19;19998;-70
2023/03/05 09:11:20;;;;;;;11.02;4.40;;;;;;;;;;7385792;19;20006;-71
2023/03/05 09:13:45;;;;;;;11.48;3.38;;;;;;;;;;7390128;19;20038;-69
2023/03/05 09:16:13;;;;;;;7.88;3.53;;;;;;;;;;7389784;19;20015;-71
2023/03/05 09:18:39;;;;;;;9.05;3.45;;;;;;;;;;7393774;19;20054;-71
2023/03/05 09:21:07;;;;;;;8.30;3.80;;;;;;;;;;7389717;19;20468;-72
2023/03/05 09:23:33;;;;;;;9.93;3.90;;;;;;;;;;7387162;19;20003;-70
2023/03/05 09:25:58;;;;;;;11.93;4.10;;;;;;;;;;7390681;19;20551;-71
2023/03/05 09:28:23;;;;;;;10.65;3.75;;;;;;;;;;7389136;19;20007;-72
2023/03/05 09:30:49;;;;;;;9.32;3.20;;;;;;;;;;7389246;19;20019;-70
2023/03/05 09:33:14;;;;;;;9.48;3.30;;;;;;;;;;7388790;19;20002;-70
2023/03/05 09:35:40;;;;;;;9.35;3.63;;;;;;;;;;7390477;19;20089;-70
2023/03/05 09:38:05;;;;;;;7.35;3.53;;;;;;;;;;7391938;19;20003;-71
2023/03/05 09:40:42;;;;;;;8.00;3.30;;;;;;;;;;7388370;19;20010;-71
2023/03/05 09:43:25;;;;;;;10.45;3.60;;;;;;;;;;7390940;19;20002;-69
2023/03/05 09:46:28;;;;;;;12.35;4.35;;;;;;;;;;7394547;19;20027;-71
2023/03/05 09:49:13;;;;;;;11.40;4.28;;;;;;;;;;7392965;19;20014;-70
2023/03/05 09:51:40;;;;;;;11.38;3.80;;;;;;;;;;7393889;19;20003;-72
2023/03/05 09:54:15;;;;;;;10.60;4.13;;;;;;;;;;7387136;19;20468;-70
2023/03/05 09:56:48;;;;;;;10.43;3.40;;;;;;;;;;7392722;19;19999;-71
2023/03/05 09:59:27;;;;;;;9.80;3.72;;;;;;;;;;7387617;19;20009;-70
2023/03/05 10:01:56;;;;;;;12.73;3.88;;;;;;;;;;7392712;19;19998;-72
2023/03/05 10:04:27;;;;;;;10.07;3.58;;;;;;;;;;7385417;19;20005;-71
2023/03/05 10:07:03;;;;;;;13.48;4.07;;;;;;;;;;7390792;19;20556;-71
2023/03/05 10:09:55;;;;;;;8.55;4.03;;;;;;;;;;7388526;19;19998;-71
2023/03/05 10:12:37;;;;;;;11.68;4.53;;;;;;;;;;7388998;19;20078;-71
2023/03/05 10:15:11;;;;;;;8.90;4.03;;;;;;;;;;7387773;19;20027;-72
2023/03/05 10:18:10;;;;;;;10.95;4.30;;;;;;;;;;7388343;19;20500;-70
2023/03/05 10:20:56;;;;;;;11.65;3.92;;;;;;;;;;7384005;19;20009;-70
2023/03/05 10:24:01;;;;;;;10.82;3.90;;;;;;;;;;7387917;19;19999;-71
2023/03/05 10:26:37;;;;;;;8.27;3.72;;;;;;;;;;7387760;19;20074;-72
2023/03/05 10:29:43;;;;;;;8.27;4.13;;;;;;;;;;7388580;19;20365;-72
2023/03/05 10:32:23;;;;;;;11.18;4.07;;;;;;;;;;7385494;19;20112;-72
2023/03/05 10:35:30;;;;;;;11.55;4.43;;;;;;;;;;7386673;19;20007;-71
2023/03/05 10:38:20;;;;;;;9.73;4.20;;;;;;;;;;7386941;19;20009;-69
2023/03/05 10:40:54;;;;;;;9.30;3.97;;;;;;;;;;7385910;19;20038;-71
2023/03/05 10:43:37;;;;;;;9.30;4.07;;;;;;;;;;7388737;19;20010;-72
2023/03/05 10:46:04;;;;;;;11.50;4.28;;;;;;;;;;7387588;19;20027;-70
2023/03/05 10:48:57;;;;;;;12.82;4.30;;;;;;;;;;7387658;19;20002;-70
2023/03/05 10:51:53;;;;;;;10.35;4.00;;;;;;;;;;7384182;19;20002;-71
2023/03/05 10:54:27;;;;;;;9.88;3.42;;;;;;;;;;7386955;19;20007;-71
2023/03/05 10:57:11;;;;;;;8.77;3.15;;;;;;;;;;7388703;19;20485;-71
2023/03/05 10:59:37;;;;;;;8.40;3.53;;;;;;;;;;7387405;19;20010;-72
2023/03/05 11:02:07;;;;;;;8.40;3.25;;;;;;;;;;7388287;19;20006;-71
2023/03/05 11:04:35;;;;;;;8.85;3.72;;;;;;;;;;7383650;19;20003;-71
2023/03/05 11:07:13;;;;;;;8.80;3.50;;;;;;;;;;7388443;19;19999;-70
2023/03/05 11:09:38;;;;;;;7.78;3.08;;;;;;;;;;7387071;19;20005;-70
2023/03/05 11:12:16;;;;;;;6.75;3.00;;;;;;;;;;7389709;19;20062;-70
2023/03/05 11:15:01;;;;;;;7.35;3.25;;;;;;;;;;7383826;19;20460;-68
2023/03/05 11:17:32;;;;;;;9.50;3.28;;;;;;;;;;7389389;19;20006;-71
2023/03/05 11:20:26;;;;;;;8.50;3.67;;;;;;;;;;7387678;19;20058;-72
2023/03/05 11:23:19;;;;;;;10.73;3.40;;;;;;;;;;7386308;19;20443;-70
2023/03/05 11:25:54;;;;;;;8.68;3.58;;;;;;;;;;7390501;19;19999;-75
2023/03/05 11:28:34;;;;;;;6.80;3.15;;;;;;;;;;7381528;19;20037;-73
2023/03/05 11:31:06;;;;;;;9.18;3.70;;;;;;;;;;7389062;19;20009;-73
2023/03/05 11:33:31;;;;;;;;;;;;;;;;;;7386903;19;20035;-73
2023/03/05 11:36:22;;;;;;;7.50;2.72;;;;;;;;;;7388528;19;20298;-74
2023/03/05 11:39:19;;;;;;;8.90;3.30;;;;;;;;;;7389305;19;20340;-72
2023/03/05 11:41:54;;;;;;;10.15;2.72;;;;;;;;;;7386546;19;20037;-72
2023/03/05 11:44:26;;;;;;;7.03;3.00;;;;;;;;;;7383708;19;20015;-72
2023/03/05 11:46:57;;;;;;;6.15;2.83;;;;;;;;;;7388679;19;20002;-73
2023/03/05 11:49:26;;;;;;;8.75;2.78;;;;;;;;;;7383344;19;20014;-72
2023/03/05 11:52:00;;;;;;;5.57;2.60;;;;;;;;;;7390371;19;20009;-74
2023/03/05 11:54:37;;;;;;;8.82;2.35;;;;;;;;;;7384926;19;20002;-74
2023/03/05 11:57:05;;;;;;;5.35;2.33;;;;;;;;;;7386860;19;20006;-73
2023/03/05 11:59:34;;;;;;;7.00;2.63;;;;;;;;;;7385073;19;20015;-73
2023/03/05 12:01:59;;;;;;;7.10;2.72;;;;;;;;;;7387667;19;20002;-72
2023/03/05 12:04:25;;;;;;;9.60;2.90;;;;;;;;;;7382117;19;20023;-72
2023/03/05 12:06:56;;;;;;;6.25;2.40;;;;;;;;;;7387814;19;19995;-73
2023/03/05 12:09:41;;;;;;;6.20;2.88;;;;;;;;;;7380237;19;19998;-72
2023/03/05 12:12:36;;;;;;;5.45;2.53;;;;;;;;;;7385626;19;20461;-71
2023/03/05 12:15:11;;;;;;;4.88;2.20;;;;;;;;;;7382140;19;20040;-71
2023/03/05 12:17:43;;;;;;;10.73;3.03;;;;;;;;;;7386263;19;20006;-71
2023/03/05 12:20:22;;;;;;;7.70;2.97;;;;;;;;;;7384132;19;20482;-72
2023/03/05 12:22:48;;;;;;;7.35;2.63;;;;;;;;;;7386544;19;20024;-74
2023/03/05 12:25:41;;;;;;;6.35;2.40;;;;;;;;;;7384025;19;20018;-71
2023/03/05 12:28:14;;;;;;;4.55;2.50;;;;;;;;;;7385448;19;20333;-70
2023/03/05 12:30:42;;;;;;;7.90;2.55;;;;;;;;;;7383245;19;19995;-71
2023/03/05 12:33:30;;;;;;;7.72;2.67;;;;;;;;;;7384484;19;20018;-72
2023/03/05 12:36:20;;;;;;;5.47;2.53;;;;;;;;;;7384870;19;20014;-71
2023/03/05 12:38:50;;;;;;;6.93;2.95;;;;;;;;;;7384925;19;20006;-71
2023/03/05 12:41:22;;;;;;;11.73;2.73;;;;;;;;;;7383317;19;20421;-71
2023/03/05 12:44:05;;;;;;;6.72;2.85;;;;;;;;;;7381855;19;20808;-70
2023/03/05 12:46:39;;;;;;;10.63;2.97;;;;;;;;;;7382083;19;20056;-70
2023/03/05 12:49:16;;;;;;;5.88;2.70;;;;;;;;;;7384467;19;20007;-69
2023/03/05 12:51:43;;;;;;;11.20;3.75;;;;;;;;;;7385495;19;20544;-74
2023/03/05 12:54:21;;;;;;;8.10;3.00;;;;;;;;;;7383176;19;20018;-73
2023/03/05 12:56:46;;;;;;;7.35;2.80;;;;;;;;;;7384245;19;20010;-70
2023/03/05 12:59:14;;;;;;;6.72;3.05;;;;;;;;;;7384521;19;19999;-75
2023/03/05 13:01:45;;;;;;;7.95;3.30;;;;;;;;;;7387213;19;20006;-71
2023/03/05 13:04:18;;;;;;;8.95;3.38;;;;;;;;;;7385254;19;20003;-73
2023/03/05 13:06:44;;;;;;;7.75;2.90;;;;;;;;;;7386734;19;19999;-74
2023/03/05 13:09:15;;;;;;;8.77;2.85;;;;;;;;;;7384610;19;20030;-75
2023/03/05 13:11:43;;;;;;;9.57;3.58;;;;;;;;;;7382827;19;20415;-75
2023/03/05 13:14:27;;;;;;;8.68;3.33;;;;;;;;;;7383769;19;20014;-76
2023/03/05 13:16:53;;;;;;;9.27;3.40;;;;;;;;;;7386003;19;20006;-75
2023/03/05 13:19:19;;;;;;;8.85;3.20;;;;;;;;;;7385009;19;20014;-73
2023/03/05 13:21:45;;;;;;;5.70;2.88;;;;;;;;;;7381097;19;20381;-75
2023/03/05 13:24:18;;;;;;;6.65;2.95;;;;;;;;;;7383915;19;20009;-76
2023/03/05 13:26:44;;;;;;;8.15;3.25;;;;;;;;;;7384748;19;20035;-74
2023/03/05 13:29:18;;;;;;;6.05;2.88;;;;;;;;;;7385589;19;20019;-76
2023/03/05 13:31:50;;;;;;;8.77;3.13;;;;;;;;;;7380948;19;20034;-75
2023/03/05 13:34:36;;;;;;;7.15;2.60;;;;;;;;;;7381778;19;20009;-75
2023/03/05 13:37:16;;;;;;;10.82;3.53;;;;;;;;;;7383843;19;20027;-73
2023/03/05 13:40:06;;;;;;;8.60;3.40;;;;;;;;;;7382627;19;20003;-76
2023/03/05 13:42:33;;;;;;;6.55;2.85;;;;;;;;;;7381570;19;20039;-74
2023/03/05 13:45:19;;;;;;;8.85;3.30;;;;;;;;;;7383059;19;20006;-73
2023/03/05 13:47:57;;;;;;;9.93;3.40;;;;;;;;;;7384216;19;20010;-73
2023/03/05 13:50:36;;;;;;;8.27;3.22;;;;;;;;;;7379301;19;20023;-73
2023/03/05 13:53:29;;;;;;;6.72;2.88;;;;;;;;;;7381581;19;20464;-73
2023/03/05 13:56:00;;;;;;;6.80;3.25;;;;;;;;;;7389714;19;20006;-73
2023/03/05 13:58:51;;;;;;;8.45;3.35;;;;;;;;;;7387662;19;20014;-72
2023/03/05 14:01:35;;;;;;;6.53;3.20;;;;;;;;;;7387895;19;20017;-75
2023/03/05 14:04:12;;;;;;;7.50;2.63;;;;;;;;;;7388411;19;20023;-74
2023/03/05 14:07:05;;;;;;;6.45;3.00;;;;;;;;;;7389532;19;20049;-76
2023/03/05 14:09:46;;;;;;;6.35;2.97;;;;;;;;;;7383168;19;20002;-72
2023/03/05 14:12:35;;;;;;;8.83;2.70;;;;;;;;;;7390528;19;20007;-74
2023/03/05 14:15:05;;;;;;;6.63;2.78;;;;;;;;;;7385581;19;20251;-73
2023/03/05 14:17:43;;;;;;;7.35;3.00;;;;;;;;;;7389850;19;20364;-73
2023/03/05 14:20:11;;;;;;;7.18;2.95;;;;;;;;;;7387981;19;20066;-74
2023/03/05 14:22:39;;;;;;;6.65;2.85;;;;;;;;;;7387637;19;20099;-77
2023/03/05 14:25:24;;;;;;;5.40;2.42;;;;;;;;;;7389680;19;20014;-77
2023/03/05 14:27:50;;;;;;;6.82;3.13;;;;;;;;;;7390420;19;20009;-77
2023/03/05 14:30:18;;;;;;;6.10;2.55;;;;;;;;;;7385815;19;20007;-76
2023/03/05 14:32:44;;;;;;;5.65;2.58;;;;;;;;;;7386894;19;20369;-76
2023/03/05 14:35:19;;;;;;;8.20;2.80;;;;;;;;;;7390140;19;20107;-76
2023/03/05 14:37:47;;;;;;;7.45;2.92;;;;;;;;;;7389196;19;20007;-76
2023/03/05 14:40:13;;;;;;;8.55;2.70;;;;;;;;;;7386709;19;20544;-75
2023/03/05 14:43:00;;;;;;;6.80;2.80;;;;;;;;;;7387329;19;20006;-76
2023/03/05 14:45:28;;;;;;;6.85;2.75;;;;;;;;;;7385162;19;20742;-75
2023/03/05 14:47:55;;;;;;;7.53;3.10;;;;;;;;;;7389002;19;20523;-76
2023/03/05 14:50:23;;;;;;;8.65;2.88;;;;;;;;;;7385957;19;20463;-77